Time;durP1;ratioP1;P1;durP2;ratioP2;P2;SDS_P1;SDS_P2;PMS_P1;PMS_P2;Temp;Humidity;BMP_temperature;BMP_pressure;BME280_temperature;BME280_humidity;BME280_pressure;Samples;Min_cycle;Max_cycle;Signal;HPM_P1;HPM_P2
2022/05/25 00:01:25;;;;;;;0.43;0.30;;;14.60;84.90;;;;;;4229075;28;20053;-76
2022/05/25 00:03:28;;;;;;;3.33;0.30;;;14.60;85.40;;;;;;4219292;28;20157;-75
2022/05/25 00:05:30;;;;;;;1.05;0.60;;;14.60;85.00;;;;;;4232358;28;20061;-76
2022/05/25 00:07:32;;;;;;;0.30;0.20;;;14.70;84.90;;;;;;4235348;28;20074;-75
2022/05/25 00:09:34;;;;;;;0.45;0.30;;;14.70;84.70;;;;;;4235471;28;20063;-76
2022/05/25 00:11:36;;;;;;;2.17;0.52;;;14.60;85.80;;;;;;4235540;28;20062;-76
2022/05/25 00:13:38;;;;;;;1.00;0.35;;;14.60;85.90;;;;;;4235762;28;20927;-76
2022/05/25 00:15:39;;;;;;;0.45;0.45;;;14.60;86.40;;;;;;4236332;27;20067;-75
2022/05/25 00:17:41;;;;;;;0.65;0.40;;;14.60;87.10;;;;;;4230190;28;20855;-75
2022/05/25 00:20:01;;;;;;;0.20;0.20;;;14.70;86.50;;;;;;4235459;28;20925;-75
2022/05/25 00:22:03;;;;;;;0.32;0.30;;;14.60;86.60;;;;;;4236400;28;20064;-76
2022/05/25 00:24:05;;;;;;;0.13;0.13;;;14.70;87.00;;;;;;4233421;28;20067;-76
2022/05/25 00:26:07;;;;;;;1.65;0.20;;;14.70;86.70;;;;;;4236295;27;20044;-75
2022/05/25 00:28:13;;;;;;;0.30;0.10;;;14.70;86.50;;;;;;4236314;27;20066;-75
2022/05/25 00:30:16;;;;;;;0.30;0.30;;;14.60;86.70;;;;;;4235744;27;20198;-75
2022/05/25 00:32:17;;;;;;;0.80;0.30;;;14.60;86.80;;;;;;4235980;27;20060;-76
2022/05/25 00:34:19;;;;;;;0.47;0.47;;;14.60;87.10;;;;;;4221763;28;20044;-75
2022/05/25 00:36:21;;;;;;;0.82;0.40;;;14.60;87.00;;;;;;4232096;28;20060;-75
2022/05/25 00:38:23;;;;;;;0.30;0.30;;;14.60;86.30;;;;;;4232149;28;20075;-75
2022/05/25 00:40:35;;;;;;;0.85;0.40;;;14.60;86.70;;;;;;4235777;27;20103;-75
2022/05/25 00:42:37;;;;;;;0.90;0.30;;;14.60;86.60;;;;;;4231396;27;20151;-75
2022/05/25 00:44:38;;;;;;;0.52;0.47;;;14.60;86.20;;;;;;4231562;28;20867;-75
2022/05/25 00:46:40;;;;;;;0.30;0.30;;;14.60;86.70;;;;;;4232223;28;20060;-75
2022/05/25 00:48:50;;;;;;;0.35;0.30;;;14.60;86.30;;;;;;4233347;27;20052;-75
2022/05/25 00:53:12;;;;;;;3.60;0.45;;;14.50;83.70;;;;;;4225505;28;20159;-75
2022/05/25 00:55:26;;;;;;;0.50;0.30;;;14.50;84.20;;;;;;4236418;27;20151;-76
2022/05/25 00:57:36;;;;;;;0.20;0.20;;;14.40;84.50;;;;;;4225598;28;20056;-74
2022/05/25 00:59:55;;;;;;;0.93;0.40;;;14.40;82.70;;;;;;4231514;28;20064;-75
2022/05/25 01:01:56;;;;;;;3.92;0.35;;;14.40;83.40;;;;;;4225753;28;20067;-76
2022/05/25 01:03:58;;;;;;;0.43;0.30;;;14.50;83.90;;;;;;4235695;27;20774;-75
2022/05/25 01:06:20;;;;;;;2.53;0.32;;;14.50;83.70;;;;;;4225999;28;20053;-74
2022/05/25 01:08:34;;;;;;;3.08;0.55;;;14.50;83.90;;;;;;4229935;28;20150;-75
2022/05/25 01:10:39;;;;;;;0.20;0.20;;;14.50;84.40;;;;;;4240027;28;20070;-74
2022/05/25 01:12:59;;;;;;;0.20;0.20;;;14.60;83.60;;;;;;4237619;28;20055;-75
2022/05/25 01:15:07;;;;;;;0.95;0.40;;;14.50;83.30;;;;;;4237074;28;20091;-75
2022/05/25 01:17:33;;;;;;;1.65;0.28;;;14.50;83.10;;;;;;4232111;27;20066;-75
2022/05/25 01:20:00;;;;;;;0.77;0.65;;;14.50;83.00;;;;;;4234716;28;20060;-74
2022/05/25 01:22:25;;;;;;;0.20;0.20;;;14.50;82.60;;;;;;4226116;28;20052;-76
2022/05/25 01:24:51;;;;;;;0.50;0.43;;;14.50;83.10;;;;;;4227938;28;20859;-75
2022/05/25 01:27:12;;;;;;;0.40;0.20;;;14.50;83.30;;;;;;4224772;28;20121;-75
2022/05/25 01:29:23;;;;;;;0.43;0.35;;;14.50;83.40;;;;;;4233505;28;20062;-76
2022/05/25 01:31:30;;;;;;;5.93;0.47;;;14.50;83.30;;;;;;4233205;27;20095;-75
2022/05/25 01:33:45;;;;;;;1.60;0.30;;;14.40;82.90;;;;;;4230415;28;20062;-75
2022/05/25 01:35:46;;;;;;;0.68;0.57;;;14.40;83.20;;;;;;4234999;28;20410;-76
2022/05/25 01:38:15;;;;;;;0.57;0.28;;;14.40;83.30;;;;;;4235787;27;20961;-76
2022/05/25 01:40:39;;;;;;;1.45;0.10;;;14.40;83.00;;;;;;4232513;28;20052;-76
2022/05/25 01:42:46;;;;;;;0.20;0.20;;;14.40;82.90;;;;;;4237555;28;20162;-76
2022/05/25 01:44:52;;;;;;;1.15;0.28;;;14.30;83.20;;;;;;4230701;28;20126;-75
2022/05/25 01:47:04;;;;;;;2.72;0.22;;;14.30;82.90;;;;;;4233958;27;20063;-75
2022/05/25 01:49:19;;;;;;;1.65;0.20;;;14.30;82.60;;;;;;4222630;27;20800;-75
2022/05/25 01:51:27;;;;;;;4.82;0.30;;;14.20;83.00;;;;;;4229571;28;20048;-75
2022/05/25 01:53:33;;;;;;;0.45;0.30;;;14.20;83.50;;;;;;4219389;28;20052;-75
2022/05/25 01:55:41;;;;;;;0.30;0.30;;;14.10;83.10;;;;;;4221896;28;20067;-75
2022/05/25 01:57:49;;;;;;;0.50;0.30;;;14.10;83.40;;;;;;4232666;28;20083;-75
2022/05/25 01:59:51;;;;;;;0.63;0.30;;;14.00;84.80;;;;;;4231147;28;20117;-75
2022/05/25 02:04:21;;;;;;;2.50;0.45;;;14.00;85.10;;;;;;4227949;28;20056;-75
2022/05/25 02:06:57;;;;;;;0.43;0.40;;;14.00;84.40;;;;;;4229540;28;20876;-75
2022/05/25 02:09:23;;;;;;;0.30;0.30;;;14.00;84.80;;;;;;4224508;28;20067;-75
2022/05/25 02:11:34;;;;;;;0.30;0.30;;;14.00;85.80;;;;;;4224111;28;20067;-75
2022/05/25 02:13:47;;;;;;;0.65;0.38;;;14.00;86.20;;;;;;4225449;28;20764;-75
2022/05/25 02:15:59;;;;;;;5.97;1.48;;;14.00;86.50;;;;;;4228047;28;20175;-75
2022/05/25 02:18:07;;;;;;;1.00;0.28;;;14.00;86.30;;;;;;4233136;28;20060;-76
2022/05/25 02:20:19;;;;;;;2.33;0.52;;;14.00;86.00;;;;;;4232810;27;20881;-76
2022/05/25 02:22:28;;;;;;;0.93;0.38;;;13.90;86.50;;;;;;4250167;27;20356;-74
2022/05/25 02:24:40;;;;;;;2.53;0.30;;;13.90;86.70;;;;;;4239411;27;20086;-76
2022/05/25 02:26:50;;;;;;;0.20;0.20;;;13.80;86.60;;;;;;4227280;28;20060;-76
2022/05/25 02:28:59;;;;;;;0.73;0.30;;;13.80;87.00;;;;;;4231410;28;20134;-75
2022/05/25 02:31:05;;;;;;;0.43;0.40;;;13.80;87.60;;;;;;4223018;28;20060;-75
2022/05/25 02:33:32;;;;;;;1.40;0.30;;;13.80;87.50;;;;;;4226685;27;20130;-75
2022/05/25 02:35:35;;;;;;;1.88;0.30;;;13.80;87.10;;;;;;4231229;28;20106;-76
2022/05/25 02:37:37;;;;;;;1.90;0.40;;;13.80;86.70;;;;;;4233434;27;20209;-76
2022/05/25 02:39:39;;;;;;;0.63;0.32;;;13.80;86.40;;;;;;4232922;27;20080;-75
2022/05/25 02:41:54;;;;;;;0.45;0.30;;;13.80;86.60;;;;;;4231494;28;20700;-75
2022/05/25 02:43:57;;;;;;;0.45;0.35;;;13.80;86.30;;;;;;4231382;28;20095;-76
2022/05/25 02:45:58;;;;;;;0.80;0.75;;;13.80;84.50;;;;;;4231458;28;20056;-75
2022/05/25 02:48:00;;;;;;;0.30;0.20;;;13.70;83.70;;;;;;4231818;28;20680;-75
2022/05/25 02:50:02;;;;;;;1.15;0.30;;;13.70;84.30;;;;;;4231585;28;20060;-75
2022/05/25 02:52:08;;;;;;;1.73;0.50;;;13.80;84.30;;;;;;4233343;28;20032;-76
2022/05/25 02:54:10;;;;;;;0.60;0.40;;;13.80;84.00;;;;;;4232534;28;20040;-75
2022/05/25 02:56:11;;;;;;;2.55;0.30;;;13.80;83.60;;;;;;4231967;28;20807;-76
2022/05/25 02:58:13;;;;;;;0.55;0.28;;;13.80;83.80;;;;;;4234857;27;20062;-77
2022/05/25 03:00:15;;;;;;;0.20;0.20;;;13.80;83.90;;;;;;4231583;28;20144;-76
2022/05/25 03:02:17;;;;;;;0.50;0.20;;;13.80;83.40;;;;;;4228762;27;20075;-75
2022/05/25 03:04:19;;;;;;;0.13;0.10;;;13.70;84.00;;;;;;4232302;27;20044;-75
2022/05/25 03:06:21;;;;;;;0.22;0.20;;;13.80;84.60;;;;;;4232955;27;20192;-76
2022/05/25 03:08:23;;;;;;;0.47;0.40;;;13.80;84.90;;;;;;4227997;27;20127;-75
2022/05/25 03:10:25;;;;;;;0.93;0.45;;;13.70;84.60;;;;;;4228418;28;20099;-75
2022/05/25 03:12:26;;;;;;;0.60;0.30;;;13.70;83.80;;;;;;4231045;28;20159;-75
2022/05/25 03:14:29;;;;;;;0.90;0.35;;;13.70;84.00;;;;;;4232982;27;20656;-75
2022/05/25 03:16:32;;;;;;;0.82;0.22;;;13.70;84.30;;;;;;4231453;28;20870;-75
2022/05/25 03:18:34;;;;;;;3.17;0.25;;;13.70;84.00;;;;;;4231456;28;20117;-75
2022/05/25 03:20:36;;;;;;;2.08;0.65;;;13.70;84.20;;;;;;4229101;27;20056;-75
2022/05/25 03:22:39;;;;;;;4.00;0.60;;;13.70;84.60;;;;;;4232621;28;20066;-76
2022/05/25 03:24:41;;;;;;;1.20;0.30;;;13.70;85.50;;;;;;4222947;22;20085;-76
2022/05/25 03:26:42;;;;;;;1.65;0.35;;;13.60;84.30;;;;;;4173129;28;20057;-76
2022/05/25 03:28:44;;;;;;;0.63;0.30;;;13.60;84.00;;;;;;4172434;28;20096;-74
2022/05/25 03:30:47;;;;;;;1.40;0.47;;;13.60;84.40;;;;;;4173769;28;20879;-74
2022/05/25 03:32:49;;;;;;;0.88;0.28;;;13.70;84.10;;;;;;4175293;28;20092;-74
2022/05/25 03:34:50;;;;;;;0.20;0.20;;;13.60;83.80;;;;;;4176580;28;20058;-74
2022/05/25 03:36:54;;;;;;;0.60;0.28;;;13.60;83.50;;;;;;4175088;28;20158;-74
2022/05/25 03:38:56;;;;;;;0.75;0.68;;;13.60;83.70;;;;;;4176608;28;20781;-74
2022/05/25 03:41:00;;;;;;;0.40;0.35;;;13.60;83.60;;;;;;4175623;28;20116;-74
2022/05/25 03:43:02;;;;;;;1.13;0.30;;;13.60;83.70;;;;;;4175752;28;20057;-74
2022/05/25 03:45:04;;;;;;;1.35;0.47;;;13.60;83.60;;;;;;4175593;28;20806;-74
2022/05/25 03:47:06;;;;;;;0.20;0.20;;;13.60;83.70;;;;;;4175632;28;20057;-74
2022/05/25 03:49:07;;;;;;;1.05;0.30;;;13.60;83.60;;;;;;4179887;28;20054;-75
2022/05/25 03:51:10;;;;;;;0.80;0.38;;;13.60;83.50;;;;;;4179036;28;20076;-74
2022/05/25 03:53:12;;;;;;;0.50;0.30;;;13.60;83.30;;;;;;4179498;28;20069;-75
2022/05/25 03:55:14;;;;;;;1.20;0.30;;;13.60;83.60;;;;;;4178861;28;20175;-74
2022/05/25 03:57:15;;;;;;;0.60;0.40;;;13.70;84.00;;;;;;4178165;28;20053;-75
2022/05/25 03:59:17;;;;;;;2.33;0.35;;;13.60;83.80;;;;;;4177503;28;20704;-74
2022/05/25 04:01:19;;;;;;;0.20;0.20;;;13.60;83.50;;;;;;4178740;28;20057;-74
2022/05/25 04:03:21;;;;;;;0.30;0.30;;;13.60;83.10;;;;;;4178362;28;20057;-74
2022/05/25 04:05:23;;;;;;;0.45;0.40;;;13.60;84.00;;;;;;4177355;28;20057;-74
2022/05/25 04:07:24;;;;;;;0.63;0.40;;;13.60;83.90;;;;;;4178210;28;20092;-74
2022/05/25 04:09:26;;;;;;;2.28;0.38;;;13.60;85.20;;;;;;4178807;28;20756;-75
2022/05/25 04:11:28;;;;;;;0.65;0.30;;;13.50;83.30;;;;;;4177960;28;20054;-74
2022/05/25 04:13:30;;;;;;;0.35;0.35;;;13.40;84.70;;;;;;4176309;28;20050;-74
2022/05/25 04:15:33;;;;;;;0.30;0.30;;;13.30;85.00;;;;;;4176317;28;20060;-74
2022/05/25 04:17:35;;;;;;;0.40;0.40;;;13.40;85.80;;;;;;4176985;28;20093;-74
2022/05/25 04:19:38;;;;;;;0.88;0.40;;;13.40;85.40;;;;;;4180143;28;21864;-74
2022/05/25 04:21:41;;;;;;;0.85;0.40;;;13.40;85.40;;;;;;4172759;28;20060;-74
2022/05/25 04:23:43;;;;;;;2.97;0.40;;;13.40;85.60;;;;;;4167202;28;21163;-74
2022/05/25 04:25:44;;;;;;;0.38;0.38;;;13.40;85.80;;;;;;4167132;28;20089;-74
2022/05/25 04:27:48;;;;;;;0.47;0.40;;;13.50;86.20;;;;;;4170393;28;20049;-74
2022/05/25 04:29:50;;;;;;;0.40;0.30;;;13.50;86.20;;;;;;4169367;28;20865;-74
2022/05/25 04:31:52;;;;;;;0.20;0.20;;;13.50;85.90;;;;;;4174276;28;20068;-74
2022/05/25 04:33:55;;;;;;;0.68;0.55;;;13.50;84.60;;;;;;4173714;28;20077;-74
2022/05/25 04:35:57;;;;;;;5.82;0.30;;;13.50;84.70;;;;;;4172624;28;20049;-74
2022/05/25 04:37:59;;;;;;;1.05;0.40;;;13.50;84.60;;;;;;4172656;28;20056;-74
2022/05/25 04:40:01;;;;;;;0.40;0.40;;;13.50;85.20;;;;;;4171663;28;20071;-74
2022/05/25 04:42:03;;;;;;;0.73;0.40;;;13.60;85.10;;;;;;4172419;28;20081;-74
2022/05/25 04:44:05;;;;;;;0.80;0.22;;;13.60;85.10;;;;;;4173121;28;20089;-74
2022/05/25 04:46:11;;;;;;;0.70;0.20;;;13.60;85.30;;;;;;4174017;28;20084;-74
2022/05/25 04:48:13;;;;;;;0.40;0.32;;;13.70;85.20;;;;;;4172763;28;20065;-74
2022/05/25 04:50:18;;;;;;;0.75;0.40;;;13.70;85.30;;;;;;4168974;28;20649;-74
2022/05/25 04:52:19;;;;;;;0.20;0.20;;;13.70;85.40;;;;;;4172684;28;20057;-76
2022/05/25 04:54:21;;;;;;;0.52;0.30;;;13.70;85.60;;;;;;4173827;28;20064;-74
2022/05/25 04:58:47;;;;;;;1.90;0.50;;;13.70;85.60;;;;;;4173852;28;20852;-74
2022/05/25 05:00:49;;;;;;;1.45;0.40;;;13.70;85.00;;;;;;4173706;28;20091;-73
2022/05/25 05:02:51;;;;;;;0.88;0.30;;;13.70;84.40;;;;;;4171130;28;20182;-74
2022/05/25 05:04:52;;;;;;;0.80;0.40;;;13.70;83.70;;;;;;4165278;28;20064;-73
2022/05/25 05:06:54;;;;;;;0.60;0.43;;;13.70;84.30;;;;;;4175513;28;20152;-74
2022/05/25 05:08:56;;;;;;;1.00;0.35;;;13.60;84.50;;;;;;4172595;28;20753;-74
2022/05/25 05:11:05;;;;;;;0.93;0.25;;;13.60;84.30;;;;;;4171432;28;20188;-77
2022/05/25 05:13:08;;;;;;;0.40;0.35;;;13.60;84.60;;;;;;4171945;28;20102;-74
2022/05/25 05:15:11;;;;;;;0.50;0.30;;;13.60;85.00;;;;;;4172064;28;20842;-74
2022/05/25 05:17:12;;;;;;;0.30;0.30;;;13.60;84.90;;;;;;4175906;28;20867;-74
2022/05/25 05:19:14;;;;;;;0.60;0.52;;;13.60;84.50;;;;;;4170696;28;20062;-74
2022/05/25 05:21:16;;;;;;;0.55;0.30;;;13.60;84.70;;;;;;4167155;28;20056;-77
2022/05/25 05:23:18;;;;;;;1.35;0.43;;;13.50;84.70;;;;;;4166719;28;20057;-74
2022/05/25 05:25:20;;;;;;;1.08;0.85;;;13.60;84.80;;;;;;4167739;28;20058;-73
2022/05/25 05:27:22;;;;;;;1.23;0.40;;;13.70;85.10;;;;;;4174012;28;21253;-74
2022/05/25 05:29:24;;;;;;;0.43;0.38;;;13.70;84.90;;;;;;4171837;28;20077;-74
2022/05/25 05:31:26;;;;;;;4.28;0.57;;;13.80;85.20;;;;;;4175155;28;20184;-74
2022/05/25 05:33:28;;;;;;;0.73;0.40;;;13.80;83.60;;;;;;4174795;28;20096;-74
2022/05/25 05:35:30;;;;;;;0.32;0.22;;;13.90;83.70;;;;;;4168344;28;20679;-74
2022/05/25 05:37:49;;;;;;;1.73;0.40;;;13.90;83.30;;;;;;4168561;28;20073;-74
2022/05/25 05:39:55;;;;;;;1.65;0.50;;;13.90;83.50;;;;;;4170776;28;20895;-74
2022/05/25 05:42:06;;;;;;;1.58;0.30;;;13.80;83.80;;;;;;4168610;28;20102;-74
2022/05/25 05:44:10;;;;;;;1.42;0.57;;;13.70;84.00;;;;;;4168568;28;20853;-74
2022/05/25 05:46:13;;;;;;;1.73;0.43;;;13.80;84.50;;;;;;4168021;28;20092;-74
2022/05/25 05:48:21;;;;;;;4.30;0.57;;;13.80;84.70;;;;;;4172742;28;20065;-74
2022/05/25 05:50:25;;;;;;;2.05;0.35;;;13.90;84.20;;;;;;4172220;28;20165;-74
2022/05/25 05:52:27;;;;;;;0.60;0.50;;;14.00;84.20;;;;;;4173940;28;20049;-74
2022/05/25 05:54:29;;;;;;;0.90;0.47;;;14.00;84.40;;;;;;4169600;28;20086;-74
2022/05/25 05:56:32;;;;;;;0.50;0.30;;;14.30;83.70;;;;;;4174457;28;20764;-74
2022/05/25 05:58:34;;;;;;;1.35;0.30;;;14.40;83.50;;;;;;4178415;28;20057;-74
2022/05/25 06:00:37;;;;;;;1.75;0.60;;;14.50;82.40;;;;;;4170059;28;20097;-74
2022/05/25 06:02:39;;;;;;;2.15;0.40;;;14.60;81.90;;;;;;4169815;28;20097;-74
2022/05/25 06:04:41;;;;;;;1.85;0.43;;;14.60;80.10;;;;;;4173052;28;20808;-75
2022/05/25 06:06:42;;;;;;;1.02;0.38;;;14.60;79.40;;;;;;4171538;28;20148;-74
2022/05/25 06:08:46;;;;;;;1.95;0.63;;;14.60;80.40;;;;;;4172794;28;20058;-75
2022/05/25 06:10:48;;;;;;;0.32;0.30;;;14.50;80.50;;;;;;4170344;28;20670;-74
2022/05/25 06:12:50;;;;;;;3.13;0.60;;;14.70;80.70;;;;;;4170920;28;20072;-74
2022/05/25 06:14:52;;;;;;;0.60;0.50;;;14.90;80.10;;;;;;4172709;28;20059;-74
2022/05/25 06:19:26;;;;;;;0.68;0.30;;;15.10;79.30;;;;;;4172440;28;20912;-74
2022/05/25 06:21:28;;;;;;;1.00;0.40;;;15.20;79.50;;;;;;4172147;28;20065;-74
2022/05/25 06:23:30;;;;;;;0.90;0.60;;;15.30;80.00;;;;;;4171587;28;20058;-74
2022/05/25 06:25:32;;;;;;;1.30;0.57;;;15.30;79.80;;;;;;4169734;28;20065;-73
2022/05/25 06:27:34;;;;;;;0.65;0.30;;;15.20;78.60;;;;;;4169503;28;20192;-75
2022/05/25 06:29:37;;;;;;;1.63;0.30;;;15.20;78.80;;;;;;4178548;28;20152;-74
2022/05/25 06:31:39;;;;;;;0.50;0.50;;;15.10;78.20;;;;;;4170041;28;20066;-74
2022/05/25 06:33:43;;;;;;;0.63;0.50;;;15.00;78.60;;;;;;4173763;28;20050;-74
2022/05/25 06:35:44;;;;;;;2.67;0.50;;;15.00;78.90;;;;;;4170376;28;20054;-74
2022/05/25 06:37:47;;;;;;;1.73;0.60;;;15.00;79.30;;;;;;4175182;28;20172;-71
2022/05/25 06:39:49;;;;;;;5.07;0.93;;;15.10;79.30;;;;;;4177328;28;20067;-72
2022/05/25 06:41:52;;;;;;;0.75;0.50;;;15.20;78.70;;;;;;4174761;28;20058;-73
2022/05/25 06:43:55;;;;;;;3.50;0.50;;;15.30;78.20;;;;;;4175475;28;20056;-72
2022/05/25 06:45:56;;;;;;;0.88;0.40;;;15.40;77.60;;;;;;4173569;28;20068;-72
2022/05/25 06:47:58;;;;;;;1.83;0.60;;;15.40;77.80;;;;;;4169907;28;20123;-70
2022/05/25 06:50:00;;;;;;;6.13;0.50;;;15.40;77.20;;;;;;4168009;28;20890;-72
2022/05/25 06:52:02;;;;;;;1.27;1.05;;;15.40;77.50;;;;;;4168106;28;20357;-72
2022/05/25 06:54:05;;;;;;;1.42;0.68;;;15.30;76.20;;;;;;4171957;28;20179;-72
2022/05/25 06:56:07;;;;;;;0.70;0.40;;;15.30;77.40;;;;;;4174177;28;21026;-72
2022/05/25 06:58:09;;;;;;;0.85;0.40;;;15.50;76.30;;;;;;4174698;28;20785;-72
2022/05/25 07:00:11;;;;;;;0.57;0.57;;;15.70;76.00;;;;;;4173439;28;20053;-73
2022/05/25 07:02:12;;;;;;;0.38;0.38;;;15.80;76.20;;;;;;4176694;28;20460;-72
2022/05/25 07:04:14;;;;;;;2.20;0.50;;;15.80;75.80;;;;;;4172235;28;20061;-73
2022/05/25 07:06:18;;;;;;;3.05;0.75;;;15.90;75.30;;;;;;4175580;28;20057;-73
2022/05/25 07:08:19;;;;;;;1.75;0.75;;;15.90;75.10;;;;;;4174889;28;20763;-72
2022/05/25 07:10:21;;;;;;;1.85;0.45;;;16.00;74.50;;;;;;4176063;28;20155;-71
2022/05/25 07:12:23;;;;;;;1.33;0.63;;;16.00;73.00;;;;;;4177232;28;20061;-71
2022/05/25 07:14:26;;;;;;;0.95;0.80;;;16.10;74.00;;;;;;4176895;28;20156;-72
2022/05/25 07:16:28;;;;;;;1.15;0.40;;;16.10;72.40;;;;;;4179422;28;20058;-73
2022/05/25 07:18:30;;;;;;;1.33;0.50;;;16.20;72.60;;;;;;4180266;28;20207;-73
2022/05/25 07:20:32;;;;;;;0.65;0.57;;;16.20;72.10;;;;;;4179378;28;20061;-73
2022/05/25 07:22:34;;;;;;;2.83;0.45;;;16.20;72.10;;;;;;4179631;28;20866;-73
2022/05/25 07:24:35;;;;;;;1.05;0.35;;;16.10;71.90;;;;;;4179833;28;20058;-73
2022/05/25 07:26:37;;;;;;;0.50;0.50;;;16.20;71.20;;;;;;4179758;28;21145;-74
2022/05/25 07:28:40;;;;;;;2.03;0.60;;;16.20;71.30;;;;;;4178927;28;20057;-73
2022/05/25 07:30:42;;;;;;;0.68;0.30;;;16.20;70.70;;;;;;4178884;28;20053;-72
2022/05/25 07:32:45;;;;;;;0.57;0.40;;;16.30;72.30;;;;;;4180092;28;20057;-74
2022/05/25 07:34:55;;;;;;;0.57;0.40;;;16.50;71.40;;;;;;4177179;28;20057;-74
2022/05/25 07:37:11;;;;;;;0.88;0.28;;;16.70;70.90;;;;;;4179021;28;20846;-73
2022/05/25 07:39:15;;;;;;;0.45;0.40;;;16.90;70.70;;;;;;4179143;28;20093;-73
2022/05/25 07:41:17;;;;;;;0.45;0.32;;;16.80;69.90;;;;;;4175136;28;20061;-74
2022/05/25 07:43:22;;;;;;;0.63;0.28;;;16.70;71.00;;;;;;4179343;28;20062;-73
2022/05/25 07:45:24;;;;;;;0.75;0.50;;;16.90;70.90;;;;;;4179286;28;20042;-73
2022/05/25 07:47:28;;;;;;;2.67;0.38;;;17.10;70.00;;;;;;4178016;28;20060;-73
2022/05/25 07:49:30;;;;;;;1.15;0.63;;;17.30;69.60;;;;;;4178655;28;20151;-74
2022/05/25 07:51:31;;;;;;;1.33;0.40;;;17.40;69.80;;;;;;4177588;28;20076;-74
2022/05/25 07:55:54;;;;;;;1.80;0.77;;;17.50;69.20;;;;;;4178125;28;20792;-74
2022/05/25 07:57:56;;;;;;;2.38;0.43;;;17.60;69.40;;;;;;4176347;28;20773;-73
2022/05/25 07:59:58;;;;;;;1.55;0.73;;;17.50;68.00;;;;;;4175355;28;20156;-74
2022/05/25 08:07:12;;;;;;;3.17;0.88;;;17.50;69.50;;;;;;4173990;28;20586;-74
2022/05/25 08:09:14;;;;;;;0.98;0.43;;;17.60;69.80;;;;;;4171177;28;20064;-75
2022/05/25 08:11:17;;;;;;;0.52;0.38;;;17.70;69.40;;;;;;4172918;28;20135;-75
2022/05/25 08:13:21;;;;;;;0.90;0.63;;;17.70;68.60;;;;;;4175143;28;20180;-73
2022/05/25 08:15:24;;;;;;;4.13;1.33;;;17.60;69.90;;;;;;4175782;28;20181;-74
2022/05/25 08:17:26;;;;;;;2.05;0.50;;;17.60;69.50;;;;;;4177778;28;21016;-72
2022/05/25 08:19:27;;;;;;;0.75;0.35;;;17.90;70.40;;;;;;4174689;28;20057;-73
2022/05/25 08:21:29;;;;;;;0.95;0.40;;;18.20;68.80;;;;;;4178169;28;20057;-73
2022/05/25 08:23:47;;;;;;;1.92;0.50;;;18.30;68.30;;;;;;4179176;28;20089;-72
2022/05/25 08:25:49;;;;;;;0.82;0.38;;;18.40;66.60;;;;;;4177069;28;20170;-76
2022/05/25 08:27:50;;;;;;;0.95;0.60;;;18.40;66.70;;;;;;4177478;28;20062;-71
2022/05/25 08:29:52;;;;;;;1.73;0.40;;;18.30;65.00;;;;;;4178566;28;20676;-73
2022/05/25 08:31:58;;;;;;;0.98;0.40;;;18.10;65.30;;;;;;4177336;28;20061;-73
2022/05/25 08:33:59;;;;;;;0.55;0.50;;;17.80;66.00;;;;;;4176751;28;20058;-73
2022/05/25 08:36:01;;;;;;;0.68;0.20;;;17.70;67.30;;;;;;4178857;28;20789;-73
2022/05/25 08:38:03;;;;;;;0.90;0.40;;;17.50;66.80;;;;;;4177530;28;20147;-71
2022/05/25 08:40:06;;;;;;;0.47;0.45;;;17.50;67.50;;;;;;4178702;28;20733;-72
2022/05/25 08:42:18;;;;;;;2.22;0.60;;;17.50;68.20;;;;;;4177695;28;20050;-73
2022/05/25 08:44:23;;;;;;;1.13;0.40;;;17.60;68.50;;;;;;4176837;28;20062;-73
2022/05/25 08:46:25;;;;;;;0.57;0.50;;;17.50;67.40;;;;;;4179039;28;20816;-72
2022/05/25 08:48:29;;;;;;;3.03;0.60;;;17.50;66.80;;;;;;4178294;28;20053;-73
2022/05/25 08:50:32;;;;;;;0.70;0.32;;;17.60;67.50;;;;;;4176673;28;20768;-73
2022/05/25 08:52:36;;;;;;;1.73;0.60;;;17.80;67.00;;;;;;4177876;28;20061;-73
2022/05/25 08:54:37;;;;;;;1.45;0.40;;;18.00;66.90;;;;;;4176995;28;20068;-72
2022/05/25 08:56:54;;;;;;;2.53;0.40;;;18.20;66.20;;;;;;4179426;28;20638;-73
2022/05/25 08:59:18;;;;;;;2.65;0.40;;;18.40;65.50;;;;;;4176652;28;20750;-73
2022/05/25 09:01:34;;;;;;;3.08;0.80;;;18.80;66.40;;;;;;4177720;28;20080;-73
2022/05/25 09:03:45;;;;;;;2.00;0.40;;;19.00;64.70;;;;;;4176532;28;20064;-73
2022/05/25 09:05:55;;;;;;;0.28;0.28;;;18.90;64.30;;;;;;4179110;28;20140;-74
2022/05/25 09:08:02;;;;;;;0.75;0.57;;;18.90;64.30;;;;;;4177796;28;20141;-74
2022/05/25 09:10:06;;;;;;;3.03;0.52;;;18.70;63.40;;;;;;4173998;28;20068;-74
2022/05/25 09:12:18;;;;;;;2.67;0.45;;;18.30;63.50;;;;;;4175041;28;20061;-74
2022/05/25 09:14:43;;;;;;;0.30;0.30;;;18.00;67.10;;;;;;4175373;28;20168;-74
2022/05/25 09:16:49;;;;;;;0.57;0.50;;;17.90;65.50;;;;;;4173518;28;20816;-75
2022/05/25 09:19:00;;;;;;;3.53;0.30;;;17.70;65.30;;;;;;4172291;28;20877;-75
2022/05/25 09:21:04;;;;;;;1.15;0.32;;;17.60;66.60;;;;;;4172177;28;20216;-75
2022/05/25 09:23:06;;;;;;;6.60;0.45;;;17.50;68.70;;;;;;4172304;28;20053;-75
2022/05/25 09:25:10;;;;;;;1.10;0.43;;;17.30;67.50;;;;;;4169960;28;20049;-76
2022/05/25 09:27:14;;;;;;;0.50;0.50;;;17.20;70.10;;;;;;4173233;28;20057;-75
2022/05/25 09:29:17;;;;;;;0.75;0.50;;;17.20;69.70;;;;;;4174500;28;20156;-75
2022/05/25 09:31:25;;;;;;;0.40;0.35;;;17.10;69.30;;;;;;4173257;28;20092;-75
2022/05/25 09:33:43;;;;;;;2.42;0.32;;;17.20;66.60;;;;;;4173387;28;20084;-76
2022/05/25 09:35:50;;;;;;;0.40;0.40;;;17.20;66.50;;;;;;4175139;28;20673;-77
2022/05/25 09:38:13;;;;;;;0.65;0.30;;;17.20;67.90;;;;;;4173432;28;20852;-76
2022/05/25 09:40:24;;;;;;;3.30;0.40;;;17.50;67.10;;;;;;4207234;22;20034;-75
2022/05/25 09:42:25;;;;;;;1.40;0.63;;;17.70;68.20;;;;;;4174314;28;20844;-76
2022/05/25 09:44:28;;;;;;;1.05;0.38;;;18.00;65.90;;;;;;4148160;28;20058;-75
2022/05/25 09:46:42;;;;;;;1.95;0.38;;;18.20;65.40;;;;;;4143772;28;20108;-75
2022/05/25 09:48:50;;;;;;;0.30;0.30;;;18.60;64.60;;;;;;4152594;28;20066;-75
2022/05/25 09:50:53;;;;;;;0.73;0.40;;;18.60;61.70;;;;;;4159349;28;20976;-75
2022/05/25 09:52:55;;;;;;;0.40;0.38;;;18.30;62.80;;;;;;4155496;28;20054;-75
2022/05/25 09:55:00;;;;;;;1.10;0.43;;;18.20;62.50;;;;;;4155697;28;20061;-77
2022/05/25 09:57:13;;;;;;;1.38;0.50;;;18.10;62.80;;;;;;4159627;28;20058;-75
2022/05/25 09:59:26;;;;;;;1.38;0.47;;;18.00;63.00;;;;;;4155731;28;20054;-76
2022/05/25 10:01:39;;;;;;;5.88;1.92;;;17.90;61.00;;;;;;4170381;28;20054;-76
2022/05/25 10:03:43;;;;;;;1.90;0.60;;;18.00;63.30;;;;;;4148145;28;20069;-75
2022/05/25 10:05:51;;;;;;;1.30;0.40;;;18.10;63.40;;;;;;4159882;28;20192;-75
2022/05/25 10:07:54;;;;;;;0.57;0.40;;;18.00;64.70;;;;;;4144565;28;20057;-75
2022/05/25 10:10:01;;;;;;;2.08;0.93;;;17.80;62.80;;;;;;4154219;28;20090;-75
2022/05/25 10:12:22;;;;;;;2.15;0.38;;;17.60;63.40;;;;;;4162989;28;20101;-76
2022/05/25 10:14:33;;;;;;;4.45;1.98;;;17.60;60.70;;;;;;4161458;28;20045;-76
2022/05/25 10:16:34;;;;;;;2.60;0.30;;;17.50;64.60;;;;;;4159288;28;20097;-76
2022/05/25 10:18:43;;;;;;;0.30;0.30;;;17.50;64.90;;;;;;4155590;28;20072;-75
2022/05/25 10:20:47;;;;;;;3.72;0.25;;;17.80;62.80;;;;;;4153246;28;20680;-77
2022/05/25 10:22:52;;;;;;;1.65;0.30;;;18.40;63.10;;;;;;4153150;28;20201;-76
2022/05/25 10:25:07;;;;;;;1.20;0.22;;;19.00;59.30;;;;;;4151230;28;20086;-76
2022/05/25 10:27:27;;;;;;;5.07;0.77;;;19.60;57.90;;;;;;4169816;28;20093;-76
2022/05/25 10:37:09;;;;;;;0.20;0.20;;;20.90;53.80;;;;;;4152653;28;20900;-76
2022/05/25 10:39:32;;;;;;;2.25;0.40;;;20.50;53.50;;;;;;4152189;28;20098;-75
2022/05/25 10:41:43;;;;;;;1.42;0.60;;;20.00;55.20;;;;;;4146671;28;20059;-76
2022/05/25 10:44:01;;;;;;;0.43;0.30;;;19.80;55.70;;;;;;4153696;28;20062;-73
2022/05/25 10:46:03;;;;;;;0.35;0.20;;;19.50;54.60;;;;;;4149119;28;20106;-74
2022/05/25 10:48:33;;;;;;;0.55;0.38;;;19.20;56.30;;;;;;4156574;28;20152;-75
2022/05/25 10:50:56;;;;;;;3.30;0.50;;;19.10;58.30;;;;;;4152523;28;20055;-75
2022/05/25 10:53:30;;;;;;;0.60;0.28;;;19.10;59.40;;;;;;4153860;28;20502;-75
2022/05/25 10:55:41;;;;;;;1.25;0.50;;;19.10;58.00;;;;;;4150706;28;20881;-76
2022/05/25 10:57:48;;;;;;;0.63;0.60;;;19.00;58.50;;;;;;4150595;28;20058;-76
2022/05/25 11:00:10;;;;;;;1.95;0.90;;;19.00;59.40;;;;;;4154966;28;20062;-76
2022/05/25 11:02:46;;;;;;;0.43;0.40;;;19.00;58.10;;;;;;4155329;28;20102;-75
2022/05/25 11:05:18;;;;;;;0.68;0.40;;;19.10;57.40;;;;;;4147136;28;20865;-76
2022/05/25 11:07:31;;;;;;;1.15;0.20;;;19.30;57.20;;;;;;4154417;28;20143;-74
2022/05/25 11:09:46;;;;;;;1.15;0.30;;;19.60;55.20;;;;;;4151013;28;20081;-75
2022/05/25 11:12:22;;;;;;;1.10;0.30;;;19.90;55.50;;;;;;4152728;28;20912;-75
2022/05/25 11:14:32;;;;;;;0.32;0.28;;;19.50;53.00;;;;;;4147237;28;20364;-74
2022/05/25 11:17:09;;;;;;;2.10;0.77;;;19.30;55.70;;;;;;4147625;28;20062;-74
2022/05/25 11:19:17;;;;;;;0.90;0.40;;;19.20;57.30;;;;;;4152387;28;20069;-74
2022/05/25 11:21:40;;;;;;;0.15;0.15;;;19.30;55.60;;;;;;4169568;28;20054;-75
2022/05/25 11:24:13;;;;;;;1.00;0.40;;;19.50;55.50;;;;;;4147150;28;20866;-74